createdAt,value
2022-07-28T00:01:22.207Z,20.58
2022-07-28T00:03:53.170Z,20.62
2022-07-28T00:06:22.859Z,20.63
2022-07-28T00:08:52.479Z,20.64
2022-07-28T00:11:22.052Z,20.40
2022-07-28T00:13:50.318Z,20.71
2022-07-28T00:16:18.793Z,20.57
2022-07-28T00:18:46.976Z,20.48
2022-07-28T00:21:15.233Z,20.54
2022-07-28T00:23:44.712Z,20.70
2022-07-28T00:26:13.032Z,20.66
2022-07-28T00:28:43.087Z,20.77
2022-07-28T00:31:13.410Z,20.49
2022-07-28T00:33:42.254Z,20.35
2022-07-28T00:36:11.717Z,20.13
2022-07-28T00:38:43.995Z,20.21
2022-07-28T00:41:14.568Z,20.37
2022-07-28T00:43:44.649Z,20.38
2022-07-28T00:46:13.765Z,20.59
2022-07-28T00:48:44.317Z,20.46
2022-07-28T00:51:13.136Z,20.39
2022-07-28T00:53:43.651Z,20.60
2022-07-28T00:56:14.862Z,20.51
2022-07-28T00:58:43.361Z,20.31
2022-07-28T01:01:20.039Z,20.41
2022-07-28T01:03:50.565Z,20.20
2022-07-28T01:06:29.528Z,20.24
2022-07-28T01:09:04.809Z,20.11
2022-07-28T01:11:44.284Z,20.40
2022-07-28T01:14:18.047Z,20.50
2022-07-28T01:16:53.004Z,20.24
2022-07-28T01:19:35.384Z,20.14
2022-07-28T01:22:05.026Z,20.23
2022-07-28T01:24:38.003Z,20.36
2022-07-28T01:27:10.050Z,20.34
2022-07-28T01:29:51.901Z,20.31
2022-07-28T01:32:23.820Z,20.43
2022-07-28T01:34:53.698Z,20.49
2022-07-28T01:37:27.194Z,20.15
2022-07-28T01:39:58.792Z,20.28
2022-07-28T01:42:29.634Z,20.06
2022-07-28T01:44:59.034Z,19.96
2022-07-28T01:47:30.479Z,20.10
2022-07-28T01:50:01.171Z,20.04
2022-07-28T01:52:30.830Z,19.95
2022-07-28T01:55:00.627Z,19.99
2022-07-28T01:57:31.573Z,20.04
2022-07-28T02:00:00.697Z,20.15
2022-07-28T02:02:31.164Z,20.21
2022-07-28T02:05:01.081Z,19.85
2022-07-28T02:07:30.480Z,20.18
2022-07-28T02:09:59.574Z,20.12
2022-07-28T02:12:28.095Z,20.23
2022-07-28T02:14:56.745Z,20.31
2022-07-28T02:17:32.289Z,20.25
2022-07-28T02:20:02.509Z,20.36
2022-07-28T02:22:31.365Z,20.16
2022-07-28T02:24:59.874Z,20.13
2022-07-28T02:27:34.790Z,19.98
2022-07-28T02:30:06.677Z,20.24
2022-07-28T02:32:40.120Z,20.29
2022-07-28T02:35:14.995Z,20.11
2022-07-28T02:37:48.938Z,20.17
2022-07-28T02:40:17.790Z,20.35
2022-07-28T02:42:48.383Z,20.40
2022-07-28T02:45:18.345Z,20.41
2022-07-28T02:47:48.626Z,20.30
2022-07-28T02:50:20.842Z,20.32
2022-07-28T02:52:49.501Z,20.12
2022-07-28T02:55:18.900Z,20.31
2022-07-28T02:57:47.831Z,20.40
2022-07-28T03:00:16.793Z,20.12
2022-07-28T03:02:46.941Z,20.11
2022-07-28T03:05:17.293Z,20.07
2022-07-28T03:07:50.387Z,20.21
2022-07-28T03:10:33.681Z,20.26
2022-07-28T03:13:03.728Z,20.30
2022-07-28T03:15:32.137Z,20.30
2022-07-28T03:18:00.792Z,20.23
2022-07-28T03:20:30.535Z,20.11
2022-07-28T03:22:59.460Z,20.17
2022-07-28T03:25:32.510Z,20.08
2022-07-28T03:28:01.027Z,20.13
2022-07-28T03:30:32.828Z,19.81
2022-07-28T03:33:02.344Z,19.67
2022-07-28T03:35:32.922Z,19.66
2022-07-28T03:38:03.730Z,19.86
2022-07-28T03:40:33.325Z,19.92
2022-07-28T03:43:03.621Z,19.89
2022-07-28T03:45:34.041Z,19.85
2022-07-28T03:48:02.850Z,19.98
2022-07-28T03:50:33.902Z,20.02
2022-07-28T03:53:03.910Z,20.03
2022-07-28T03:55:32.257Z,19.66
2022-07-28T03:58:01.630Z,20.07
2022-07-28T04:00:29.939Z,19.95
2022-07-28T04:02:58.299Z,19.89
2022-07-28T04:05:26.340Z,20.13
2022-07-28T04:07:55.866Z,19.91
2022-07-28T04:10:23.997Z,19.69
2022-07-28T04:12:56.016Z,19.81
2022-07-28T04:15:26.081Z,19.94
2022-07-28T04:17:55.184Z,19.95
2022-07-28T04:20:24.532Z,20.06
2022-07-28T04:22:53.023Z,19.99
2022-07-28T04:25:24.494Z,20.01
2022-07-28T04:27:52.901Z,19.94
2022-07-28T04:30:24.853Z,19.94
2022-07-28T04:32:54.589Z,19.78
2022-07-28T04:35:24.229Z,19.92
2022-07-28T04:37:55.270Z,19.77
2022-07-28T04:40:24.790Z,19.90
2022-07-28T04:42:53.000Z,20.04
2022-07-28T04:45:21.428Z,19.81
2022-07-28T04:47:49.583Z,20.04
2022-07-28T04:50:20.145Z,20.24
2022-07-28T04:52:49.409Z,20.00
2022-07-28T04:55:18.423Z,20.27
2022-07-28T04:57:48.270Z,20.06
2022-07-28T05:00:17.120Z,20.05
2022-07-28T05:02:48.054Z,20.19
2022-07-28T05:05:16.476Z,20.14
2022-07-28T05:07:44.846Z,20.13
2022-07-28T05:10:13.631Z,19.95
2022-07-28T05:12:42.268Z,20.13
2022-07-28T05:15:12.538Z,20.04
2022-07-28T05:17:40.903Z,19.97
2022-07-28T05:20:09.877Z,20.15
2022-07-28T05:22:43.525Z,20.03
2022-07-28T05:25:16.211Z,20.09
2022-07-28T05:27:44.825Z,20.15
2022-07-28T05:30:15.153Z,20.30
2022-07-28T05:32:43.364Z,20.33
2022-07-28T05:35:11.581Z,20.11
2022-07-28T05:37:40.905Z,20.06
2022-07-28T05:40:13.777Z,20.03
2022-07-28T05:42:43.315Z,20.02
2022-07-28T05:45:16.383Z,20.11
2022-07-28T05:47:46.886Z,19.91
2022-07-28T05:50:16.098Z,20.12
2022-07-28T05:52:44.577Z,20.10
2022-07-28T05:55:12.820Z,20.08
2022-07-28T05:57:42.347Z,20.09
2022-07-28T06:00:16.489Z,20.50
2022-07-28T06:02:47.568Z,20.12
2022-07-28T06:05:17.330Z,20.28
2022-07-28T06:07:46.128Z,20.22
2022-07-28T06:10:16.086Z,20.32
2022-07-28T06:12:45.721Z,20.56
2022-07-28T06:15:15.496Z,20.62
2022-07-28T06:17:44.299Z,20.50
2022-07-28T06:20:15.265Z,20.55
2022-07-28T06:22:45.246Z,20.64
2022-07-28T06:25:15.572Z,20.67
2022-07-28T06:27:44.812Z,20.81
2022-07-28T06:30:13.654Z,20.76
2022-07-28T06:32:42.100Z,20.70
2022-07-28T06:35:10.930Z,20.68
2022-07-28T06:37:40.598Z,20.77
2022-07-28T06:40:11.887Z,20.79
2022-07-28T06:42:40.440Z,20.95
2022-07-28T06:45:09.580Z,21.15
2022-07-28T06:47:49.317Z,21.11
2022-07-28T06:50:25.835Z,21.23
2022-07-28T06:52:59.237Z,21.15
2022-07-28T06:55:34.372Z,21.27
2022-07-28T06:58:03.616Z,21.33
2022-07-28T07:00:32.068Z,21.22
2022-07-28T07:03:00.917Z,20.98
2022-07-28T07:05:32.548Z,20.94
2022-07-28T07:08:02.495Z,21.43
2022-07-28T07:10:30.905Z,21.20
2022-07-28T07:12:59.016Z,21.40
2022-07-28T07:15:27.384Z,21.50
2022-07-28T07:17:55.755Z,21.47
2022-07-28T07:20:24.311Z,21.67
2022-07-28T07:22:52.603Z,21.64
2022-07-28T07:25:22.190Z,21.67
2022-07-28T07:27:50.548Z,21.54
2022-07-28T07:30:18.954Z,21.33
2022-07-28T07:32:47.856Z,21.51
2022-07-28T07:35:16.264Z,21.56
2022-07-28T07:37:44.575Z,21.53
2022-07-28T07:40:13.234Z,21.91
2022-07-28T07:42:42.820Z,21.72
2022-07-28T07:45:11.282Z,21.73
2022-07-28T07:47:39.420Z,21.83
2022-07-28T07:50:08.719Z,21.99
2022-07-28T07:52:37.355Z,22.20
2022-07-28T07:55:06.325Z,22.42
2022-07-28T07:57:34.550Z,22.56
2022-07-28T08:00:06.647Z,22.20
2022-07-28T08:02:34.891Z,22.25
2022-07-28T08:05:03.145Z,22.34
2022-07-28T08:07:31.620Z,22.41
2022-07-28T08:10:00.346Z,22.35
2022-07-28T08:12:28.863Z,22.59
2022-07-28T08:14:57.291Z,22.60
2022-07-28T08:17:26.861Z,22.70
2022-07-28T08:19:55.125Z,22.72
2022-07-28T08:22:23.524Z,22.76
2022-07-28T08:24:52.116Z,22.79
2022-07-28T08:27:20.644Z,22.74
2022-07-28T08:29:48.825Z,22.87
2022-07-28T08:32:16.995Z,23.09
2022-07-28T08:34:46.506Z,22.88
2022-07-28T08:37:14.739Z,23.12
2022-07-28T08:39:45.196Z,23.29
2022-07-28T08:42:16.904Z,23.28
2022-07-28T08:44:50.649Z,23.47
2022-07-28T08:47:19.198Z,23.49
2022-07-28T08:49:50.129Z,23.16
2022-07-28T08:52:21.730Z,23.19
2022-07-28T08:54:51.183Z,23.38
2022-07-28T08:57:22.339Z,23.37
2022-07-28T08:59:50.983Z,23.52
2022-07-28T09:02:20.095Z,23.57
2022-07-28T09:04:51.018Z,23.62
2022-07-28T09:07:19.466Z,23.77
2022-07-28T09:09:49.379Z,23.93
2022-07-28T09:12:17.801Z,24.02
2022-07-28T09:14:45.919Z,24.07
2022-07-28T09:17:14.408Z,24.21
2022-07-28T09:19:42.663Z,24.10
2022-07-28T09:22:13.477Z,24.15
2022-07-28T09:24:44.550Z,24.29
2022-07-28T09:27:14.593Z,24.29
2022-07-28T09:29:46.925Z,24.41
2022-07-28T09:32:16.833Z,24.20
2022-07-28T09:34:46.833Z,24.34
2022-07-28T09:37:26.401Z,24.47
2022-07-28T09:39:58.971Z,24.36
2022-07-28T09:42:27.662Z,24.65
2022-07-28T09:45:22.499Z,24.86
2022-07-28T09:47:51.539Z,25.07
2022-07-28T09:50:21.963Z,25.42
2022-07-28T09:52:51.504Z,25.47
2022-07-28T09:55:19.600Z,25.67
2022-07-28T09:57:47.707Z,25.82
2022-07-28T10:00:28.366Z,25.84
2022-07-28T10:02:56.953Z,25.84
2022-07-28T10:05:40.125Z,25.81
2022-07-28T10:08:09.671Z,26.13
2022-07-28T10:10:40.493Z,26.06
2022-07-28T10:13:08.670Z,25.78
2022-07-28T10:15:54.545Z,25.74
2022-07-28T10:18:22.723Z,25.82
2022-07-28T10:20:51.298Z,25.86
2022-07-28T10:23:21.734Z,26.04
2022-07-28T10:25:51.113Z,26.14
2022-07-28T10:28:22.940Z,26.24
2022-07-28T10:30:53.239Z,26.36
2022-07-28T10:33:24.160Z,26.45
2022-07-28T10:35:55.374Z,26.43
2022-07-28T10:38:28.064Z,26.08
2022-07-28T10:40:57.298Z,26.23
2022-07-28T10:43:25.785Z,26.62
2022-07-28T10:46:05.612Z,26.77
2022-07-28T10:48:37.333Z,26.94
2022-07-28T10:51:05.933Z,27.02
2022-07-28T10:53:42.560Z,26.70
2022-07-28T10:56:17.153Z,26.80
2022-07-28T10:58:50.791Z,26.84
2022-07-28T11:01:53.825Z,27.13
2022-07-28T11:04:55.468Z,27.16
2022-07-28T11:07:23.731Z,27.35
2022-07-28T11:09:54.171Z,27.58
2022-07-28T11:12:46.271Z,27.84
2022-07-28T11:15:27.366Z,28.14
2022-07-28T11:18:00.133Z,28.31
2022-07-28T11:21:08.721Z,28.33
2022-07-28T11:23:55.952Z,28.38
2022-07-28T11:26:39.796Z,28.45
2022-07-28T11:29:18.198Z,28.84
2022-07-28T11:31:59.849Z,29.06
2022-07-28T11:34:28.238Z,28.68
2022-07-28T11:37:03.680Z,28.80
2022-07-28T11:39:43.393Z,28.71
2022-07-28T11:42:29.687Z,29.10
2022-07-28T11:45:26.463Z,29.25
2022-07-28T11:48:14.505Z,29.48
2022-07-28T11:50:43.036Z,29.44
2022-07-28T11:53:11.564Z,29.25
2022-07-28T11:55:55.776Z,29.45
2022-07-28T11:58:29.676Z,29.41
2022-07-28T12:01:17.064Z,29.38
2022-07-28T12:03:50.430Z,29.69
2022-07-28T12:06:28.899Z,29.73
2022-07-28T12:08:59.522Z,30.15
2022-07-28T12:11:29.170Z,30.35
2022-07-28T12:14:01.391Z,30.48
2022-07-28T12:16:30.192Z,30.44
2022-07-28T12:19:00.718Z,30.69
2022-07-28T12:21:46.660Z,30.84
2022-07-28T12:24:18.700Z,31.04
2022-07-28T12:26:49.963Z,31.25
2022-07-28T12:29:20.767Z,30.95
2022-07-28T12:31:55.381Z,31.36
2022-07-28T12:34:29.205Z,31.47
2022-07-28T12:36:58.975Z,31.36
2022-07-28T12:39:27.301Z,31.28
2022-07-28T12:42:04.427Z,31.44
2022-07-28T12:44:38.253Z,31.57
2022-07-28T12:47:09.079Z,31.72
2022-07-28T12:49:38.006Z,31.74
2022-07-28T12:52:16.949Z,31.70
2022-07-28T12:54:53.358Z,31.86
2022-07-28T12:57:48.642Z,31.74
2022-07-28T13:00:21.678Z,32.02
2022-07-28T13:02:52.001Z,32.00
2022-07-28T13:05:55.285Z,32.34
2022-07-28T13:08:29.434Z,32.42
2022-07-28T13:10:59.211Z,32.53
2022-07-28T13:13:28.143Z,32.32
2022-07-28T13:16:17.166Z,32.21
2022-07-28T13:18:47.028Z,32.57
2022-07-28T13:21:17.722Z,32.94
2022-07-28T13:23:46.030Z,33.13
2022-07-28T13:26:14.472Z,33.21
2022-07-28T13:28:42.585Z,33.04
2022-07-28T13:31:10.822Z,32.77
2022-07-28T13:33:40.577Z,32.76
2022-07-28T13:36:09.976Z,32.71
2022-07-28T13:38:38.161Z,33.02
2022-07-28T13:41:06.873Z,32.53
2022-07-28T13:43:35.783Z,32.99
2022-07-28T13:46:05.457Z,32.94
2022-07-28T13:48:36.066Z,32.81
2022-07-28T13:51:05.875Z,33.16
2022-07-28T13:53:35.928Z,33.40
2022-07-28T13:56:08.371Z,33.62
2022-07-28T13:58:37.225Z,33.90
2022-07-28T14:01:09.732Z,34.07
2022-07-28T14:03:57.816Z,34.47
2022-07-28T14:06:27.649Z,34.57
2022-07-28T14:08:56.539Z,34.59
2022-07-28T14:11:26.355Z,34.39
2022-07-28T14:13:55.500Z,34.43
2022-07-28T14:16:25.171Z,35.02
2022-07-28T14:18:53.479Z,35.08
2022-07-28T14:21:21.790Z,35.41
2022-07-28T14:23:51.378Z,35.50
2022-07-28T14:26:35.544Z,35.46
2022-07-28T14:29:04.886Z,35.32
2022-07-28T14:31:40.115Z,35.07
2022-07-28T14:34:08.431Z,33.89
2022-07-28T14:36:36.571Z,32.82
2022-07-28T14:39:10.537Z,31.66
2022-07-28T14:41:44.345Z,32.00
2022-07-28T14:44:14.642Z,33.00
2022-07-28T14:46:46.091Z,33.95
2022-07-28T14:49:14.461Z,34.23
2022-07-28T14:51:44.773Z,34.53
2022-07-28T14:54:15.083Z,34.61
2022-07-28T14:56:43.726Z,34.72
2022-07-28T14:59:11.771Z,34.53
2022-07-28T15:01:40.287Z,33.66
2022-07-28T15:04:10.230Z,32.86
2022-07-28T15:06:40.921Z,32.27
2022-07-28T15:09:09.558Z,31.89
2022-07-28T15:11:41.208Z,32.34
2022-07-28T15:14:09.397Z,32.62
2022-07-28T15:16:38.565Z,33.10
2022-07-28T15:19:08.439Z,33.94
2022-07-28T15:21:36.912Z,34.23
2022-07-28T15:24:05.889Z,34.16
2022-07-28T15:26:34.055Z,34.45
2022-07-28T15:29:03.733Z,34.86
2022-07-28T15:31:32.063Z,35.03
2022-07-28T15:34:00.729Z,35.48
2022-07-28T15:36:30.241Z,35.65
2022-07-28T15:38:58.352Z,35.31
2022-07-28T15:41:27.316Z,35.71
2022-07-28T15:43:56.376Z,35.46
2022-07-28T15:46:26.413Z,35.76
2022-07-28T15:48:55.765Z,35.83
2022-07-28T15:51:26.033Z,35.87
2022-07-28T15:53:56.442Z,35.95
2022-07-28T15:56:26.353Z,36.07
2022-07-28T15:58:54.515Z,36.52
2022-07-28T16:01:23.025Z,36.60
2022-07-28T16:03:52.638Z,36.57
2022-07-28T16:06:21.392Z,36.63
2022-07-28T16:08:49.817Z,36.65
2022-07-28T16:11:18.297Z,36.69
2022-07-28T16:13:46.476Z,36.60
2022-07-28T16:16:16.658Z,36.74
2022-07-28T16:18:45.138Z,36.48
2022-07-28T16:21:14.658Z,36.69
2022-07-28T16:23:44.007Z,36.93
2022-07-28T16:26:12.695Z,36.40
2022-07-28T16:28:41.095Z,36.18
2022-07-28T16:31:09.335Z,36.45
2022-07-28T16:33:39.909Z,36.40
2022-07-28T16:36:08.127Z,36.02
2022-07-28T16:38:37.874Z,36.57
2022-07-28T16:41:08.142Z,36.52
2022-07-28T16:43:36.345Z,36.46
2022-07-28T16:46:05.078Z,36.42
2022-07-28T16:48:33.338Z,36.18
2022-07-28T16:51:03.192Z,36.13
2022-07-28T16:53:34.725Z,35.88
2022-07-28T16:56:04.381Z,35.95
2022-07-28T16:58:32.423Z,35.88
2022-07-28T17:01:00.849Z,35.96
2022-07-28T17:03:29.940Z,35.87
2022-07-28T17:05:58.184Z,35.51
2022-07-28T17:08:29.701Z,35.37
2022-07-28T17:10:57.931Z,35.50
2022-07-28T17:13:27.383Z,35.02
2022-07-28T17:15:56.435Z,34.79
2022-07-28T17:18:25.477Z,34.86
2022-07-28T17:20:53.630Z,34.86
2022-07-28T17:23:21.747Z,34.52
2022-07-28T17:28:42.664Z,34.16
2022-07-28T17:31:11.489Z,33.91
2022-07-28T17:33:39.766Z,33.95
2022-07-28T17:36:09.623Z,33.51
2022-07-28T17:38:37.858Z,33.19
2022-07-28T17:41:09.264Z,32.98
2022-07-28T17:43:41.117Z,32.50
2022-07-28T17:46:13.320Z,31.98
2022-07-28T17:48:42.063Z,31.66
2022-07-28T17:51:10.318Z,31.32
2022-07-28T17:53:39.537Z,31.23
2022-07-28T17:56:09.252Z,30.80
2022-07-28T17:58:38.223Z,30.60
2022-07-28T18:01:12.113Z,30.45
2022-07-28T18:03:56.619Z,30.31
2022-07-28T18:06:26.581Z,30.13
2022-07-28T18:08:54.680Z,30.08
2022-07-28T18:11:22.800Z,29.94
2022-07-28T18:14:03.867Z,29.82
2022-07-28T18:16:34.255Z,29.62
2022-07-28T18:19:04.450Z,29.47
2022-07-28T18:21:34.994Z,29.46
2022-07-28T18:24:04.032Z,29.37
2022-07-28T18:26:32.084Z,29.22
2022-07-28T18:29:00.147Z,29.19
2022-07-28T18:31:29.016Z,29.07
2022-07-28T18:33:57.128Z,29.03
2022-07-28T18:36:26.617Z,28.89
2022-07-28T18:38:54.690Z,28.68
2022-07-28T18:41:22.809Z,28.63
2022-07-28T18:43:51.014Z,28.49
2022-07-28T18:46:19.239Z,28.45
2022-07-28T18:48:48.523Z,28.44
2022-07-28T18:51:18.694Z,28.33
2022-07-28T18:53:48.311Z,28.15
2022-07-28T18:56:16.581Z,28.24
2022-07-28T18:58:44.732Z,28.09
2022-07-28T19:01:14.094Z,27.97
2022-07-28T19:03:42.327Z,27.92
2022-07-28T19:06:11.733Z,27.82
2022-07-28T19:08:39.923Z,27.81
2022-07-28T19:11:10.377Z,27.71
2022-07-28T19:13:38.674Z,27.77
2022-07-28T19:16:07.034Z,27.80
2022-07-28T19:18:35.598Z,27.82
2022-07-28T19:21:04.861Z,27.54
2022-07-28T19:23:33.032Z,27.53
2022-07-28T19:26:02.315Z,27.41
2022-07-28T19:28:31.940Z,27.31
2022-07-28T19:31:10.184Z,27.51
2022-07-28T19:33:43.060Z,27.53
2022-07-28T19:36:13.712Z,27.24
2022-07-28T19:38:44.097Z,27.39
2022-07-28T19:41:13.028Z,27.41
2022-07-28T19:43:44.106Z,27.27
2022-07-28T19:46:12.713Z,27.33
2022-07-28T19:48:40.898Z,27.40
2022-07-28T19:51:09.334Z,27.27
2022-07-28T19:53:39.285Z,27.27
2022-07-28T19:56:09.113Z,27.39
2022-07-28T19:58:37.626Z,27.26
2022-07-28T20:01:07.709Z,27.20
2022-07-28T20:04:04.013Z,27.21
2022-07-28T20:06:24.702Z,27.25
2022-07-28T20:08:54.141Z,27.07
2022-07-28T20:11:22.313Z,27.28
2022-07-28T20:13:50.804Z,27.05
2022-07-28T20:16:20.563Z,27.07
2022-07-28T20:18:49.451Z,27.02
2022-07-28T20:21:19.280Z,26.92
2022-07-28T20:23:47.487Z,26.99
2022-07-28T20:26:17.250Z,27.13
2022-07-28T20:28:51.777Z,27.05
2022-07-28T20:31:21.465Z,26.91
2022-07-28T20:33:49.650Z,27.08
2022-07-28T20:36:18.138Z,26.97
2022-07-28T20:38:46.538Z,26.74
2022-07-28T20:41:16.367Z,26.72
2022-07-28T20:43:44.490Z,26.86
2022-07-28T20:46:12.627Z,26.84
2022-07-28T20:48:42.201Z,26.78
2022-07-28T20:51:11.789Z,26.68
2022-07-28T20:53:40.256Z,26.53
2022-07-28T20:56:08.346Z,26.52
2022-07-28T20:58:36.498Z,26.41
2022-07-28T21:01:04.798Z,26.23
2022-07-28T21:03:33.042Z,26.32
2022-07-28T21:06:02.513Z,26.36
2022-07-28T21:08:31.201Z,26.25
2022-07-28T21:10:59.385Z,26.24
2022-07-28T21:13:27.534Z,26.22
2022-07-28T21:15:55.795Z,26.36
2022-07-28T21:18:23.937Z,26.35
2022-07-28T21:20:52.067Z,26.41
2022-07-28T21:23:21.623Z,26.48
2022-07-28T21:25:51.401Z,26.50
2022-07-28T21:28:36.884Z,26.61
2022-07-28T21:31:05.971Z,26.56
2022-07-28T21:33:34.228Z,26.49
2022-07-28T21:36:02.416Z,26.33
2022-07-28T21:38:33.438Z,26.38
2022-07-28T21:41:01.614Z,26.28
2022-07-28T21:43:29.780Z,26.28
2022-07-28T21:45:58.927Z,26.25
2022-07-28T21:48:27.269Z,26.30
2022-07-28T21:50:55.773Z,26.20
2022-07-28T21:53:26.086Z,26.15
2022-07-28T21:55:57.199Z,26.24
2022-07-28T21:58:25.423Z,26.24
2022-07-28T22:00:53.698Z,26.24
2022-07-28T22:03:21.985Z,26.24
2022-07-28T22:05:50.236Z,26.05
2022-07-28T22:08:19.551Z,26.16
2022-07-28T22:10:47.706Z,26.02
2022-07-28T22:13:18.745Z,25.93
2022-07-28T22:15:46.991Z,25.79
2022-07-28T22:18:16.965Z,25.81
2022-07-28T22:20:45.243Z,25.74
2022-07-28T22:23:29.120Z,25.87
2022-07-28T22:25:58.055Z,25.79
2022-07-28T22:28:30.099Z,25.76
2022-07-28T22:30:59.018Z,25.66
2022-07-28T22:33:38.072Z,25.42
2022-07-28T22:36:08.692Z,25.58
2022-07-28T22:38:37.461Z,25.44
2022-07-28T22:41:06.916Z,25.37
2022-07-28T22:43:36.541Z,25.38
2022-07-28T22:46:05.156Z,25.42
2022-07-28T22:48:33.460Z,25.25
2022-07-28T22:51:01.829Z,25.38
2022-07-28T22:53:29.972Z,25.37
2022-07-28T22:55:58.443Z,25.28
2022-07-28T22:58:26.668Z,25.17
2022-07-28T23:00:56.441Z,25.14
2022-07-28T23:03:24.766Z,25.05
2022-07-28T23:05:58.013Z,25.19
2022-07-28T23:08:26.493Z,25.30
2022-07-28T23:10:55.415Z,25.26
2022-07-28T23:13:28.827Z,24.92
2022-07-28T23:15:58.497Z,25.00
2022-07-28T23:18:29.561Z,25.15
2022-07-28T23:20:57.949Z,25.10
2022-07-28T23:23:26.106Z,24.85
2022-07-28T23:25:54.402Z,24.93
2022-07-28T23:28:22.439Z,24.79
2022-07-28T23:30:52.957Z,24.92
2022-07-28T23:33:55.884Z,24.93
2022-07-28T23:36:14.655Z,24.68
2022-07-28T23:38:55.661Z,24.64
2022-07-28T23:41:24.080Z,24.65
2022-07-28T23:43:52.416Z,24.65
2022-07-28T23:46:20.831Z,24.65
2022-07-28T23:48:51.131Z,24.77
2022-07-28T23:51:21.340Z,24.57
2022-07-28T23:53:55.902Z,24.57
2022-07-28T23:56:25.052Z,24.77
2022-07-28T23:58:53.370Z,24.71
